sensor_id;sensor_type;location;lat;lon;timestamp;temperature;humidity
10644;DHT22;5370;50.132;8.626;2024-02-26T00:01:39;8.10;64.90
10644;DHT22;5370;50.132;8.626;2024-02-26T00:04:05;8.10;64.90
10644;DHT22;5370;50.132;8.626;2024-02-26T00:06:31;8.10;64.90
10644;DHT22;5370;50.132;8.626;2024-02-26T00:08:56;8.10;65.50
10644;DHT22;5370;50.132;8.626;2024-02-26T00:11:22;8.10;64.80
10644;DHT22;5370;50.132;8.626;2024-02-26T00:13:48;8.10;64.90
10644;DHT22;5370;50.132;8.626;2024-02-26T00:16:13;8.20;64.90
10644;DHT22;5370;50.132;8.626;2024-02-26T00:18:39;8.20;64.70
10644;DHT22;5370;50.132;8.626;2024-02-26T00:21:05;8.20;64.70
10644;DHT22;5370;50.132;8.626;2024-02-26T00:23:30;8.20;64.70
10644;DHT22;5370;50.132;8.626;2024-02-26T00:25:56;8.20;64.70
10644;DHT22;5370;50.132;8.626;2024-02-26T00:28:21;8.20;64.60
10644;DHT22;5370;50.132;8.626;2024-02-26T00:30:47;8.20;64.70
10644;DHT22;5370;50.132;8.626;2024-02-26T00:33:16;8.10;64.50
10644;DHT22;5370;50.132;8.626;2024-02-26T00:35:42;8.10;64.60
10644;DHT22;5370;50.132;8.626;2024-02-26T00:38:07;8.10;64.80
10644;DHT22;5370;50.132;8.626;2024-02-26T00:40:33;8.00;64.80
10644;DHT22;5370;50.132;8.626;2024-02-26T00:42:59;8.00;64.90
10644;DHT22;5370;50.132;8.626;2024-02-26T00:45:25;8.00;65.70
10644;DHT22;5370;50.132;8.626;2024-02-26T00:47:51;8.00;65.00
10644;DHT22;5370;50.132;8.626;2024-02-26T00:50:16;8.00;64.90
10644;DHT22;5370;50.132;8.626;2024-02-26T00:52:42;8.10;65.60
10644;DHT22;5370;50.132;8.626;2024-02-26T00:55:08;8.10;65.00
10644;DHT22;5370;50.132;8.626;2024-02-26T00:57:33;8.10;65.00
10644;DHT22;5370;50.132;8.626;2024-02-26T00:59:59;8.10;65.10
10644;DHT22;5370;50.132;8.626;2024-02-26T01:02:26;8.10;65.10
10644;DHT22;5370;50.132;8.626;2024-02-26T01:04:51;8.10;65.30
10644;DHT22;5370;50.132;8.626;2024-02-26T01:07:17;8.00;65.50
10644;DHT22;5370;50.132;8.626;2024-02-26T01:09:42;8.00;65.70
10644;DHT22;5370;50.132;8.626;2024-02-26T01:12:08;7.90;65.90
10644;DHT22;5370;50.132;8.626;2024-02-26T01:14:34;7.90;66.20
10644;DHT22;5370;50.132;8.626;2024-02-26T01:16:59;7.80;66.50
10644;DHT22;5370;50.132;8.626;2024-02-26T01:19:25;7.80;66.70
10644;DHT22;5370;50.132;8.626;2024-02-26T01:21:50;7.80;66.90
10644;DHT22;5370;50.132;8.626;2024-02-26T01:24:16;7.80;67.00
10644;DHT22;5370;50.132;8.626;2024-02-26T01:26:42;7.80;66.80
10644;DHT22;5370;50.132;8.626;2024-02-26T01:29:07;7.80;66.90
10644;DHT22;5370;50.132;8.626;2024-02-26T01:31:33;7.80;67.00
10644;DHT22;5370;50.132;8.626;2024-02-26T01:34:01;7.90;67.20
10644;DHT22;5370;50.132;8.626;2024-02-26T01:36:27;7.80;67.30
10644;DHT22;5370;50.132;8.626;2024-02-26T01:38:52;7.80;67.30
10644;DHT22;5370;50.132;8.626;2024-02-26T01:41:18;7.80;67.30
10644;DHT22;5370;50.132;8.626;2024-02-26T01:43:43;7.80;67.30
10644;DHT22;5370;50.132;8.626;2024-02-26T01:46:12;7.90;67.30
10644;DHT22;5370;50.132;8.626;2024-02-26T01:48:41;7.90;67.40
10644;DHT22;5370;50.132;8.626;2024-02-26T01:51:08;8.00;67.50
10644;DHT22;5370;50.132;8.626;2024-02-26T01:53:33;8.00;67.40
10644;DHT22;5370;50.132;8.626;2024-02-26T01:56:00;8.10;67.40
10644;DHT22;5370;50.132;8.626;2024-02-26T01:58:25;8.10;67.30
10644;DHT22;5370;50.132;8.626;2024-02-26T02:00:51;8.10;67.20
10644;DHT22;5370;50.132;8.626;2024-02-26T02:03:17;8.00;67.90
10644;DHT22;5370;50.132;8.626;2024-02-26T02:05:42;8.00;67.40
10644;DHT22;5370;50.132;8.626;2024-02-26T02:08:10;8.00;68.10
10644;DHT22;5370;50.132;8.626;2024-02-26T02:10:38;8.00;67.60
10644;DHT22;5370;50.132;8.626;2024-02-26T02:13:03;7.90;67.70
10644;DHT22;5370;50.132;8.626;2024-02-26T02:15:29;7.90;67.60
10644;DHT22;5370;50.132;8.626;2024-02-26T02:17:55;7.90;67.60
10644;DHT22;5370;50.132;8.626;2024-02-26T02:20:34;8.00;67.70
10644;DHT22;5370;50.132;8.626;2024-02-26T02:23:00;8.00;67.70
10644;DHT22;5370;50.132;8.626;2024-02-26T02:25:25;8.00;67.70
10644;DHT22;5370;50.132;8.626;2024-02-26T02:27:53;8.00;67.80
10644;DHT22;5370;50.132;8.626;2024-02-26T02:30:20;8.10;67.90
10644;DHT22;5370;50.132;8.626;2024-02-26T02:32:46;8.10;67.80
10644;DHT22;5370;50.132;8.626;2024-02-26T02:35:12;8.10;67.80
10644;DHT22;5370;50.132;8.626;2024-02-26T02:37:37;8.10;67.80
10644;DHT22;5370;50.132;8.626;2024-02-26T02:40:03;8.10;67.70
10644;DHT22;5370;50.132;8.626;2024-02-26T02:42:30;8.10;67.70
10644;DHT22;5370;50.132;8.626;2024-02-26T02:44:56;8.10;67.70
10644;DHT22;5370;50.132;8.626;2024-02-26T02:47:21;8.10;67.70
10644;DHT22;5370;50.132;8.626;2024-02-26T02:49:47;8.20;67.80
10644;DHT22;5370;50.132;8.626;2024-02-26T02:52:12;8.20;67.80
10644;DHT22;5370;50.132;8.626;2024-02-26T02:54:38;8.20;67.70
10644;DHT22;5370;50.132;8.626;2024-02-26T02:57:05;8.20;67.70
10644;DHT22;5370;50.132;8.626;2024-02-26T02:59:31;8.20;67.60
10644;DHT22;5370;50.132;8.626;2024-02-26T03:01:56;8.30;67.70
10644;DHT22;5370;50.132;8.626;2024-02-26T03:04:22;8.30;67.60
10644;DHT22;5370;50.132;8.626;2024-02-26T03:06:47;8.30;67.50
10644;DHT22;5370;50.132;8.626;2024-02-26T03:09:13;8.30;67.50
10644;DHT22;5370;50.132;8.626;2024-02-26T03:11:39;8.30;67.60
10644;DHT22;5370;50.132;8.626;2024-02-26T03:14:05;8.30;67.50
10644;DHT22;5370;50.132;8.626;2024-02-26T03:16:32;8.30;67.50
10644;DHT22;5370;50.132;8.626;2024-02-26T03:18:57;8.30;67.60
10644;DHT22;5370;50.132;8.626;2024-02-26T03:21:25;8.20;67.50
10644;DHT22;5370;50.132;8.626;2024-02-26T03:23:50;8.30;67.50
10644;DHT22;5370;50.132;8.626;2024-02-26T03:26:16;8.20;67.40
10644;DHT22;5370;50.132;8.626;2024-02-26T03:28:42;8.20;67.50
10644;DHT22;5370;50.132;8.626;2024-02-26T03:31:07;8.20;67.60
10644;DHT22;5370;50.132;8.626;2024-02-26T03:33:34;8.20;67.70
10644;DHT22;5370;50.132;8.626;2024-02-26T03:35:59;8.20;68.00
10644;DHT22;5370;50.132;8.626;2024-02-26T03:38:25;8.20;68.10
10644;DHT22;5370;50.132;8.626;2024-02-26T03:40:50;8.30;68.30
10644;DHT22;5370;50.132;8.626;2024-02-26T03:43:16;8.30;68.40
10644;DHT22;5370;50.132;8.626;2024-02-26T03:45:42;8.30;68.80
10644;DHT22;5370;50.132;8.626;2024-02-26T03:48:07;8.40;68.90
10644;DHT22;5370;50.132;8.626;2024-02-26T03:50:33;8.40;68.80
10644;DHT22;5370;50.132;8.626;2024-02-26T03:53:00;8.50;68.90
10644;DHT22;5370;50.132;8.626;2024-02-26T03:55:25;8.50;68.40
10644;DHT22;5370;50.132;8.626;2024-02-26T03:57:54;8.50;68.30
10644;DHT22;5370;50.132;8.626;2024-02-26T04:00:19;8.50;68.20
10644;DHT22;5370;50.132;8.626;2024-02-26T04:02:46;8.60;68.10
10644;DHT22;5370;50.132;8.626;2024-02-26T04:05:13;8.60;68.00
10644;DHT22;5370;50.132;8.626;2024-02-26T04:07:42;8.60;68.10
10644;DHT22;5370;50.132;8.626;2024-02-26T04:10:10;8.60;68.00
10644;DHT22;5370;50.132;8.626;2024-02-26T04:12:41;8.60;68.10
10644;DHT22;5370;50.132;8.626;2024-02-26T04:15:10;8.60;68.20
10644;DHT22;5370;50.132;8.626;2024-02-26T04:17:36;8.60;68.30
10644;DHT22;5370;50.132;8.626;2024-02-26T04:20:03;8.60;68.20
10644;DHT22;5370;50.132;8.626;2024-02-26T04:22:28;8.60;67.90
10644;DHT22;5370;50.132;8.626;2024-02-26T04:24:54;8.60;67.70
10644;DHT22;5370;50.132;8.626;2024-02-26T04:27:20;8.60;67.80
10644;DHT22;5370;50.132;8.626;2024-02-26T04:29:45;8.60;67.80
10644;DHT22;5370;50.132;8.626;2024-02-26T04:32:11;8.60;67.70
10644;DHT22;5370;50.132;8.626;2024-02-26T04:34:36;8.60;67.70
10644;DHT22;5370;50.132;8.626;2024-02-26T04:37:02;8.60;67.70
10644;DHT22;5370;50.132;8.626;2024-02-26T04:39:27;8.50;67.70
10644;DHT22;5370;50.132;8.626;2024-02-26T04:41:53;8.50;67.80
10644;DHT22;5370;50.132;8.626;2024-02-26T04:44:18;8.50;67.90
10644;DHT22;5370;50.132;8.626;2024-02-26T04:46:44;8.50;68.10
10644;DHT22;5370;50.132;8.626;2024-02-26T04:49:09;8.40;68.10
10644;DHT22;5370;50.132;8.626;2024-02-26T04:51:35;8.40;68.30
10644;DHT22;5370;50.132;8.626;2024-02-26T04:54:00;8.40;68.50
10644;DHT22;5370;50.132;8.626;2024-02-26T04:56:26;8.40;68.80
10644;DHT22;5370;50.132;8.626;2024-02-26T04:58:51;8.40;69.00
10644;DHT22;5370;50.132;8.626;2024-02-26T05:01:17;8.40;69.10
10644;DHT22;5370;50.132;8.626;2024-02-26T05:03:44;8.40;69.40
10644;DHT22;5370;50.132;8.626;2024-02-26T05:06:09;8.40;69.70
10644;DHT22;5370;50.132;8.626;2024-02-26T05:08:35;8.40;70.20
10644;DHT22;5370;50.132;8.626;2024-02-26T05:11:04;8.40;70.50
10644;DHT22;5370;50.132;8.626;2024-02-26T05:13:30;8.40;70.70
10644;DHT22;5370;50.132;8.626;2024-02-26T05:15:55;8.50;71.00
10644;DHT22;5370;50.132;8.626;2024-02-26T05:18:22;8.40;70.80
10644;DHT22;5370;50.132;8.626;2024-02-26T05:20:47;8.40;70.70
10644;DHT22;5370;50.132;8.626;2024-02-26T05:23:13;8.40;71.00
10644;DHT22;5370;50.132;8.626;2024-02-26T05:25:39;8.40;71.10
10644;DHT22;5370;50.132;8.626;2024-02-26T05:28:04;8.30;71.20
10644;DHT22;5370;50.132;8.626;2024-02-26T05:30:30;8.30;71.50
10644;DHT22;5370;50.132;8.626;2024-02-26T05:32:55;8.20;71.60
10644;DHT22;5370;50.132;8.626;2024-02-26T05:35:21;8.20;72.00
10644;DHT22;5370;50.132;8.626;2024-02-26T05:37:46;8.10;72.20
10644;DHT22;5370;50.132;8.626;2024-02-26T05:40:12;8.00;72.50
10644;DHT22;5370;50.132;8.626;2024-02-26T05:42:38;7.90;73.00
10644;DHT22;5370;50.132;8.626;2024-02-26T05:45:04;7.80;73.10
10644;DHT22;5370;50.132;8.626;2024-02-26T05:47:33;7.80;73.40
10644;DHT22;5370;50.132;8.626;2024-02-26T05:49:58;7.80;73.80
10644;DHT22;5370;50.132;8.626;2024-02-26T05:52:26;7.80;74.30
10644;DHT22;5370;50.132;8.626;2024-02-26T05:54:51;7.70;74.50
10644;DHT22;5370;50.132;8.626;2024-02-26T05:57:17;7.70;74.80
10644;DHT22;5370;50.132;8.626;2024-02-26T05:59:44;7.60;75.70
10644;DHT22;5370;50.132;8.626;2024-02-26T06:02:09;7.70;75.40
10644;DHT22;5370;50.132;8.626;2024-02-26T06:04:35;7.60;75.70
10644;DHT22;5370;50.132;8.626;2024-02-26T06:07:00;7.60;75.90
10644;DHT22;5370;50.132;8.626;2024-02-26T06:09:26;7.60;76.40
10644;DHT22;5370;50.132;8.626;2024-02-26T06:11:51;7.50;76.60
10644;DHT22;5370;50.132;8.626;2024-02-26T06:14:17;7.50;76.90
10644;DHT22;5370;50.132;8.626;2024-02-26T06:16:44;7.50;77.00
10644;DHT22;5370;50.132;8.626;2024-02-26T06:19:10;7.60;77.40
10644;DHT22;5370;50.132;8.626;2024-02-26T06:21:36;7.60;77.70
10644;DHT22;5370;50.132;8.626;2024-02-26T06:24:01;7.60;78.00
10644;DHT22;5370;50.132;8.626;2024-02-26T06:26:27;7.60;78.30
10644;DHT22;5370;50.132;8.626;2024-02-26T06:28:54;7.60;78.40
10644;DHT22;5370;50.132;8.626;2024-02-26T06:31:21;7.60;78.80
10644;DHT22;5370;50.132;8.626;2024-02-26T06:33:48;7.60;78.80
10644;DHT22;5370;50.132;8.626;2024-02-26T06:36:15;7.50;78.90
10644;DHT22;5370;50.132;8.626;2024-02-26T06:38:40;7.50;79.20
10644;DHT22;5370;50.132;8.626;2024-02-26T06:41:06;7.60;79.40
10644;DHT22;5370;50.132;8.626;2024-02-26T06:43:31;7.50;79.50
10644;DHT22;5370;50.132;8.626;2024-02-26T06:45:57;7.60;80.40
10644;DHT22;5370;50.132;8.626;2024-02-26T06:48:24;7.50;79.80
10644;DHT22;5370;50.132;8.626;2024-02-26T06:50:49;7.50;80.10
10644;DHT22;5370;50.132;8.626;2024-02-26T06:53:15;7.50;80.40
10644;DHT22;5370;50.132;8.626;2024-02-26T06:55:41;7.50;80.60
10644;DHT22;5370;50.132;8.626;2024-02-26T06:58:07;7.50;80.80
10644;DHT22;5370;50.132;8.626;2024-02-26T07:00:33;7.50;81.00
10644;DHT22;5370;50.132;8.626;2024-02-26T07:02:58;7.40;81.30
10644;DHT22;5370;50.132;8.626;2024-02-26T07:05:24;7.40;81.50
10644;DHT22;5370;50.132;8.626;2024-02-26T07:07:49;7.40;82.00
10644;DHT22;5370;50.132;8.626;2024-02-26T07:10:15;7.40;82.50
10644;DHT22;5370;50.132;8.626;2024-02-26T07:12:41;7.30;82.90
10644;DHT22;5370;50.132;8.626;2024-02-26T07:15:07;7.30;83.30
10644;DHT22;5370;50.132;8.626;2024-02-26T07:17:33;7.20;83.50
10644;DHT22;5370;50.132;8.626;2024-02-26T07:20:02;7.30;83.80
10644;DHT22;5370;50.132;8.626;2024-02-26T07:22:30;7.20;84.10
10644;DHT22;5370;50.132;8.626;2024-02-26T07:24:56;7.20;84.20
10644;DHT22;5370;50.132;8.626;2024-02-26T07:27:21;7.30;84.40
10644;DHT22;5370;50.132;8.626;2024-02-26T07:29:47;7.20;84.90
10644;DHT22;5370;50.132;8.626;2024-02-26T07:32:13;7.20;85.00
10644;DHT22;5370;50.132;8.626;2024-02-26T07:34:38;7.20;85.40
10644;DHT22;5370;50.132;8.626;2024-02-26T07:37:13;7.20;85.50
10644;DHT22;5370;50.132;8.626;2024-02-26T07:39:38;7.20;85.70
10644;DHT22;5370;50.132;8.626;2024-02-26T07:42:04;7.20;85.90
10644;DHT22;5370;50.132;8.626;2024-02-26T07:44:30;7.20;86.20
10644;DHT22;5370;50.132;8.626;2024-02-26T07:46:55;7.20;86.50
10644;DHT22;5370;50.132;8.626;2024-02-26T07:49:21;7.20;86.70
10644;DHT22;5370;50.132;8.626;2024-02-26T07:51:46;7.10;87.00
10644;DHT22;5370;50.132;8.626;2024-02-26T07:54:12;7.20;87.20
10644;DHT22;5370;50.132;8.626;2024-02-26T07:56:37;7.30;88.10
10644;DHT22;5370;50.132;8.626;2024-02-26T07:59:03;7.30;87.80
10644;DHT22;5370;50.132;8.626;2024-02-26T08:01:28;7.30;87.80
10644;DHT22;5370;50.132;8.626;2024-02-26T08:03:54;7.30;88.00
10644;DHT22;5370;50.132;8.626;2024-02-26T08:06:19;7.30;88.10
10644;DHT22;5370;50.132;8.626;2024-02-26T08:08:45;7.30;88.30
10644;DHT22;5370;50.132;8.626;2024-02-26T08:11:10;7.30;88.30
10644;DHT22;5370;50.132;8.626;2024-02-26T08:13:36;7.30;88.70
10644;DHT22;5370;50.132;8.626;2024-02-26T08:16:02;7.30;88.80
10644;DHT22;5370;50.132;8.626;2024-02-26T08:18:27;7.40;89.10
10644;DHT22;5370;50.132;8.626;2024-02-26T08:20:53;7.40;89.30
10644;DHT22;5370;50.132;8.626;2024-02-26T08:23:18;7.40;89.50
10644;DHT22;5370;50.132;8.626;2024-02-26T08:25:44;7.50;89.70
10644;DHT22;5370;50.132;8.626;2024-02-26T08:28:09;7.60;90.20
10644;DHT22;5370;50.132;8.626;2024-02-26T08:30:38;7.70;90.10
10644;DHT22;5370;50.132;8.626;2024-02-26T08:33:04;7.80;90.00
10644;DHT22;5370;50.132;8.626;2024-02-26T08:35:29;7.90;90.10
10644;DHT22;5370;50.132;8.626;2024-02-26T08:37:55;7.90;90.00
10644;DHT22;5370;50.132;8.626;2024-02-26T08:40:21;7.90;90.00
10644;DHT22;5370;50.132;8.626;2024-02-26T08:42:46;7.90;90.00
10644;DHT22;5370;50.132;8.626;2024-02-26T08:45:12;7.90;90.00
10644;DHT22;5370;50.132;8.626;2024-02-26T08:47:38;8.00;90.10
10644;DHT22;5370;50.132;8.626;2024-02-26T08:50:04;8.00;90.20
10644;DHT22;5370;50.132;8.626;2024-02-26T08:52:30;8.10;90.20
10644;DHT22;5370;50.132;8.626;2024-02-26T08:54:55;8.10;90.10
10644;DHT22;5370;50.132;8.626;2024-02-26T08:57:22;8.10;90.00
10644;DHT22;5370;50.132;8.626;2024-02-26T08:59:47;8.20;90.10
10644;DHT22;5370;50.132;8.626;2024-02-26T09:02:13;8.10;90.00
10644;DHT22;5370;50.132;8.626;2024-02-26T09:04:39;8.10;90.00
10644;DHT22;5370;50.132;8.626;2024-02-26T09:07:04;8.20;90.10
10644;DHT22;5370;50.132;8.626;2024-02-26T09:09:30;8.20;90.10
10644;DHT22;5370;50.132;8.626;2024-02-26T09:11:55;8.20;90.10
10644;DHT22;5370;50.132;8.626;2024-02-26T09:14:21;8.20;90.10
10644;DHT22;5370;50.132;8.626;2024-02-26T09:16:47;8.20;90.10
10644;DHT22;5370;50.132;8.626;2024-02-26T09:19:16;8.20;90.20
10644;DHT22;5370;50.132;8.626;2024-02-26T09:21:45;8.20;90.50
10644;DHT22;5370;50.132;8.626;2024-02-26T09:24:12;8.20;90.20
10644;DHT22;5370;50.132;8.626;2024-02-26T09:26:38;8.30;90.30
10644;DHT22;5370;50.132;8.626;2024-02-26T09:29:04;8.30;90.40
10644;DHT22;5370;50.132;8.626;2024-02-26T09:31:30;8.40;90.60
10644;DHT22;5370;50.132;8.626;2024-02-26T09:33:55;8.50;90.60
10644;DHT22;5370;50.132;8.626;2024-02-26T09:36:21;8.50;90.60
10644;DHT22;5370;50.132;8.626;2024-02-26T09:38:47;8.60;90.60
10644;DHT22;5370;50.132;8.626;2024-02-26T09:41:16;8.70;90.60
10644;DHT22;5370;50.132;8.626;2024-02-26T09:43:44;8.70;90.70
10644;DHT22;5370;50.132;8.626;2024-02-26T09:46:10;8.80;90.60
10644;DHT22;5370;50.132;8.626;2024-02-26T09:48:37;8.90;90.60
10644;DHT22;5370;50.132;8.626;2024-02-26T09:51:03;8.90;90.40
10644;DHT22;5370;50.132;8.626;2024-02-26T09:53:29;8.90;90.40
10644;DHT22;5370;50.132;8.626;2024-02-26T09:55:57;8.90;90.50
10644;DHT22;5370;50.132;8.626;2024-02-26T09:58:24;9.00;90.60
10644;DHT22;5370;50.132;8.626;2024-02-26T10:00:56;9.10;90.90
10644;DHT22;5370;50.132;8.626;2024-02-26T10:03:27;9.30;90.60
10644;DHT22;5370;50.132;8.626;2024-02-26T10:05:53;9.40;90.50
10644;DHT22;5370;50.132;8.626;2024-02-26T10:08:21;9.50;90.30
10644;DHT22;5370;50.132;8.626;2024-02-26T10:10:47;9.60;90.10
10644;DHT22;5370;50.132;8.626;2024-02-26T10:13:13;9.60;90.10
10644;DHT22;5370;50.132;8.626;2024-02-26T10:15:39;9.70;90.00
10644;DHT22;5370;50.132;8.626;2024-02-26T10:18:06;9.80;89.80
10644;DHT22;5370;50.132;8.626;2024-02-26T10:20:31;9.80;89.50
10644;DHT22;5370;50.132;8.626;2024-02-26T10:22:57;9.90;89.00
10644;DHT22;5370;50.132;8.626;2024-02-26T10:25:23;9.90;89.00
10644;DHT22;5370;50.132;8.626;2024-02-26T10:27:49;9.90;88.90
10644;DHT22;5370;50.132;8.626;2024-02-26T10:30:21;9.90;88.90
10644;DHT22;5370;50.132;8.626;2024-02-26T10:32:48;10.00;87.80
10644;DHT22;5370;50.132;8.626;2024-02-26T10:35:15;10.00;87.30
10644;DHT22;5370;50.132;8.626;2024-02-26T10:37:41;10.00;87.00
10644;DHT22;5370;50.132;8.626;2024-02-26T10:40:14;10.00;86.90
10644;DHT22;5370;50.132;8.626;2024-02-26T10:42:41;10.10;87.00
10644;DHT22;5370;50.132;8.626;2024-02-26T10:45:07;10.10;86.80
10644;DHT22;5370;50.132;8.626;2024-02-26T10:47:37;10.10;86.30
10644;DHT22;5370;50.132;8.626;2024-02-26T10:50:04;10.10;86.30
10644;DHT22;5370;50.132;8.626;2024-02-26T10:52:35;10.10;86.30
10644;DHT22;5370;50.132;8.626;2024-02-26T10:55:03;10.20;86.20
10644;DHT22;5370;50.132;8.626;2024-02-26T10:57:34;10.20;86.30
10644;DHT22;5370;50.132;8.626;2024-02-26T11:00:01;10.40;86.40
10644;DHT22;5370;50.132;8.626;2024-02-26T11:02:33;10.50;86.20
10644;DHT22;5370;50.132;8.626;2024-02-26T11:05:03;10.60;86.00
10644;DHT22;5370;50.132;8.626;2024-02-26T11:07:32;10.70;86.00
10644;DHT22;5370;50.132;8.626;2024-02-26T11:10:00;10.90;85.80
10644;DHT22;5370;50.132;8.626;2024-02-26T11:12:27;11.00;84.60
10644;DHT22;5370;50.132;8.626;2024-02-26T11:14:55;11.10;84.60
10644;DHT22;5370;50.132;8.626;2024-02-26T11:17:22;11.20;84.00
10644;DHT22;5370;50.132;8.626;2024-02-26T11:19:50;11.20;83.80
10644;DHT22;5370;50.132;8.626;2024-02-26T11:22:16;11.40;83.90
10644;DHT22;5370;50.132;8.626;2024-02-26T11:24:42;11.50;83.30
10644;DHT22;5370;50.132;8.626;2024-02-26T11:27:10;11.60;82.50
10644;DHT22;5370;50.132;8.626;2024-02-26T11:29:44;11.70;82.00
10644;DHT22;5370;50.132;8.626;2024-02-26T11:32:10;11.80;81.40
10644;DHT22;5370;50.132;8.626;2024-02-26T11:34:36;11.90;80.90
10644;DHT22;5370;50.132;8.626;2024-02-26T11:37:12;12.00;80.90
10644;DHT22;5370;50.132;8.626;2024-02-26T11:39:40;12.20;80.20
10644;DHT22;5370;50.132;8.626;2024-02-26T11:42:07;12.20;79.20
10644;DHT22;5370;50.132;8.626;2024-02-26T11:44:34;12.20;78.70
10644;DHT22;5370;50.132;8.626;2024-02-26T11:47:13;12.20;78.10
10644;DHT22;5370;50.132;8.626;2024-02-26T11:49:39;12.20;77.50
10644;DHT22;5370;50.132;8.626;2024-02-26T11:52:07;12.10;77.40
10644;DHT22;5370;50.132;8.626;2024-02-26T11:54:50;12.20;77.80
10644;DHT22;5370;50.132;8.626;2024-02-26T11:57:39;12.20;77.60
10644;DHT22;5370;50.132;8.626;2024-02-26T12:00:14;12.20;77.40
10644;DHT22;5370;50.132;8.626;2024-02-26T12:05:21;12.10;76.90
10644;DHT22;5370;50.132;8.626;2024-02-26T12:07:59;12.10;77.00
10644;DHT22;5370;50.132;8.626;2024-02-26T12:10:25;12.20;77.20
10644;DHT22;5370;50.132;8.626;2024-02-26T12:13:15;12.10;76.50
10644;DHT22;5370;50.132;8.626;2024-02-26T12:15:45;12.20;76.50
10644;DHT22;5370;50.132;8.626;2024-02-26T12:18:16;12.20;76.50
10644;DHT22;5370;50.132;8.626;2024-02-26T12:20:42;12.20;76.50
10644;DHT22;5370;50.132;8.626;2024-02-26T12:23:18;12.10;75.70
10644;DHT22;5370;50.132;8.626;2024-02-26T12:25:43;12.10;76.10
10644;DHT22;5370;50.132;8.626;2024-02-26T12:28:09;12.10;76.30
10644;DHT22;5370;50.132;8.626;2024-02-26T12:30:35;12.10;76.30
10644;DHT22;5370;50.132;8.626;2024-02-26T12:33:01;12.20;76.40
10644;DHT22;5370;50.132;8.626;2024-02-26T12:35:28;12.30;76.20
10644;DHT22;5370;50.132;8.626;2024-02-26T12:37:54;12.30;75.90
10644;DHT22;5370;50.132;8.626;2024-02-26T12:40:20;12.30;75.40
10644;DHT22;5370;50.132;8.626;2024-02-26T12:42:46;12.30;75.60
10644;DHT22;5370;50.132;8.626;2024-02-26T12:45:12;12.30;75.50
10644;DHT22;5370;50.132;8.626;2024-02-26T12:47:39;12.20;75.20
10644;DHT22;5370;50.132;8.626;2024-02-26T12:50:05;12.30;75.50
10644;DHT22;5370;50.132;8.626;2024-02-26T12:52:39;12.40;75.20
10644;DHT22;5370;50.132;8.626;2024-02-26T12:55:06;12.30;74.80
10644;DHT22;5370;50.132;8.626;2024-02-26T12:57:37;12.20;74.80
10644;DHT22;5370;50.132;8.626;2024-02-26T13:00:05;12.10;75.00
10644;DHT22;5370;50.132;8.626;2024-02-26T13:02:32;12.20;75.40
10644;DHT22;5370;50.132;8.626;2024-02-26T13:04:59;12.10;75.20
10644;DHT22;5370;50.132;8.626;2024-02-26T13:07:27;12.00;75.40
10644;DHT22;5370;50.132;8.626;2024-02-26T13:09:52;12.00;75.50
10644;DHT22;5370;50.132;8.626;2024-02-26T13:12:18;12.00;76.00
10644;DHT22;5370;50.132;8.626;2024-02-26T13:14:44;12.10;76.30
10644;DHT22;5370;50.132;8.626;2024-02-26T13:17:10;12.20;76.20
10644;DHT22;5370;50.132;8.626;2024-02-26T13:19:35;12.20;76.00
10644;DHT22;5370;50.132;8.626;2024-02-26T13:22:05;12.30;76.10
10644;DHT22;5370;50.132;8.626;2024-02-26T13:24:32;12.30;75.70
10644;DHT22;5370;50.132;8.626;2024-02-26T13:26:57;12.30;75.70
10644;DHT22;5370;50.132;8.626;2024-02-26T13:29:23;12.30;75.60
10644;DHT22;5370;50.132;8.626;2024-02-26T13:31:55;12.40;75.40
10644;DHT22;5370;50.132;8.626;2024-02-26T13:34:26;12.30;74.50
10644;DHT22;5370;50.132;8.626;2024-02-26T13:36:53;12.30;74.50
10644;DHT22;5370;50.132;8.626;2024-02-26T13:39:26;12.20;74.50
10644;DHT22;5370;50.132;8.626;2024-02-26T13:41:52;12.30;75.10
10644;DHT22;5370;50.132;8.626;2024-02-26T13:44:19;12.40;75.20
10644;DHT22;5370;50.132;8.626;2024-02-26T13:46:45;12.40;74.50
10644;DHT22;5370;50.132;8.626;2024-02-26T13:49:11;12.50;74.10
10644;DHT22;5370;50.132;8.626;2024-02-26T13:51:38;12.50;73.90
10644;DHT22;5370;50.132;8.626;2024-02-26T13:54:03;12.50;73.70
10644;DHT22;5370;50.132;8.626;2024-02-26T13:56:30;12.50;73.30
10644;DHT22;5370;50.132;8.626;2024-02-26T13:58:56;12.60;73.20
10644;DHT22;5370;50.132;8.626;2024-02-26T14:01:21;12.60;72.90
10644;DHT22;5370;50.132;8.626;2024-02-26T14:03:47;12.70;72.60
10644;DHT22;5370;50.132;8.626;2024-02-26T14:06:12;12.60;71.90
10644;DHT22;5370;50.132;8.626;2024-02-26T14:08:38;12.50;71.60
10644;DHT22;5370;50.132;8.626;2024-02-26T14:11:03;12.40;71.70
10644;DHT22;5370;50.132;8.626;2024-02-26T14:13:29;12.30;71.80
10644;DHT22;5370;50.132;8.626;2024-02-26T14:15:54;12.20;72.30
10644;DHT22;5370;50.132;8.626;2024-02-26T14:18:20;12.10;72.50
10644;DHT22;5370;50.132;8.626;2024-02-26T14:20:46;12.10;72.80
10644;DHT22;5370;50.132;8.626;2024-02-26T14:23:11;12.10;72.90
10644;DHT22;5370;50.132;8.626;2024-02-26T14:25:37;12.10;73.10
10644;DHT22;5370;50.132;8.626;2024-02-26T14:28:03;12.10;72.80
10644;DHT22;5370;50.132;8.626;2024-02-26T14:30:28;12.10;72.80
10644;DHT22;5370;50.132;8.626;2024-02-26T14:32:54;12.20;72.90
10644;DHT22;5370;50.132;8.626;2024-02-26T14:35:20;12.20;72.80
10644;DHT22;5370;50.132;8.626;2024-02-26T14:37:45;12.20;72.70
10644;DHT22;5370;50.132;8.626;2024-02-26T14:40:11;12.20;72.50
10644;DHT22;5370;50.132;8.626;2024-02-26T14:42:37;12.30;72.70
10644;DHT22;5370;50.132;8.626;2024-02-26T14:45:03;12.30;72.60
10644;DHT22;5370;50.132;8.626;2024-02-26T14:47:32;12.20;72.00
10644;DHT22;5370;50.132;8.626;2024-02-26T14:49:57;12.20;72.30
10644;DHT22;5370;50.132;8.626;2024-02-26T14:52:23;12.20;72.50
10644;DHT22;5370;50.132;8.626;2024-02-26T14:54:48;12.20;72.50
10644;DHT22;5370;50.132;8.626;2024-02-26T14:57:16;12.20;72.40
10644;DHT22;5370;50.132;8.626;2024-02-26T14:59:42;12.20;72.30
10644;DHT22;5370;50.132;8.626;2024-02-26T15:02:09;12.20;72.30
10644;DHT22;5370;50.132;8.626;2024-02-26T15:04:35;12.20;72.40
10644;DHT22;5370;50.132;8.626;2024-02-26T15:07:01;12.20;72.50
10644;DHT22;5370;50.132;8.626;2024-02-26T15:09:27;12.20;72.40
10644;DHT22;5370;50.132;8.626;2024-02-26T15:11:52;12.20;72.50
10644;DHT22;5370;50.132;8.626;2024-02-26T15:14:18;12.10;72.40
10644;DHT22;5370;50.132;8.626;2024-02-26T15:16:43;12.10;72.60
10644;DHT22;5370;50.132;8.626;2024-02-26T15:19:09;12.00;72.70
10644;DHT22;5370;50.132;8.626;2024-02-26T15:21:44;12.00;72.90
10644;DHT22;5370;50.132;8.626;2024-02-26T15:24:10;12.10;73.20
10644;DHT22;5370;50.132;8.626;2024-02-26T15:26:41;12.10;72.90
10644;DHT22;5370;50.132;8.626;2024-02-26T15:29:07;12.00;72.90
10644;DHT22;5370;50.132;8.626;2024-02-26T15:31:36;12.00;73.00
10644;DHT22;5370;50.132;8.626;2024-02-26T15:34:02;12.00;72.90
10644;DHT22;5370;50.132;8.626;2024-02-26T15:36:28;12.00;72.90
10644;DHT22;5370;50.132;8.626;2024-02-26T15:38:54;12.10;72.90
10644;DHT22;5370;50.132;8.626;2024-02-26T15:41:19;12.10;72.50
10644;DHT22;5370;50.132;8.626;2024-02-26T15:43:45;12.00;72.20
10644;DHT22;5370;50.132;8.626;2024-02-26T15:46:10;11.90;71.90
10644;DHT22;5370;50.132;8.626;2024-02-26T15:48:39;11.90;72.20
10644;DHT22;5370;50.132;8.626;2024-02-26T15:51:05;11.90;72.40
10644;DHT22;5370;50.132;8.626;2024-02-26T15:53:30;11.90;72.60
10644;DHT22;5370;50.132;8.626;2024-02-26T15:55:56;11.90;72.80